Time;durP1;ratioP1;P1;durP2;ratioP2;P2;SDS_P1;SDS_P2;PMS_P1;PMS_P2;Temp;Humidity;BMP_temperature;BMP_pressure;BME280_temperature;BME280_humidity;BME280_pressure;Samples;Min_cycle;Max_cycle;Signal;HPM_P1;HPM_P2
2024/02/21 00:00:48;;;;;;;12.38;1.58;;;9.50;99.90;;;;;;5040545;28;20037;-74
2024/02/21 00:03:15;;;;;;;16.90;3.20;;;9.50;99.90;;;;;;5068408;28;20040;-75
2024/02/21 00:05:40;;;;;;;8.52;1.20;;;9.60;99.90;;;;;;5045936;28;20067;-76
2024/02/21 00:08:06;;;;;;;9.57;1.60;;;9.60;99.90;;;;;;5055942;28;20040;-75
2024/02/21 00:10:32;;;;;;;8.52;1.52;;;9.50;99.90;;;;;;5059952;28;20044;-77
2024/02/21 00:12:59;;;;;;;9.43;1.92;;;9.60;99.90;;;;;;5041990;28;20116;-75
2024/02/21 00:15:25;;;;;;;17.98;1.88;;;9.60;99.90;;;;;;5046135;28;20075;-76
2024/02/21 00:17:50;;;;;;;8.07;1.00;;;9.50;99.90;;;;;;5063484;28;20041;-76
2024/02/21 00:20:17;;;;;;;10.27;1.35;;;9.50;99.90;;;;;;5049035;28;20056;-76
2024/02/21 00:22:43;;;;;;;13.68;2.03;;;9.50;99.90;;;;;;5062255;28;20033;-75
2024/02/21 00:25:08;;;;;;;4.03;1.48;;;9.50;99.90;;;;;;5048428;28;20037;-76
2024/02/21 00:27:34;;;;;;;9.25;1.20;;;9.60;99.90;;;;;;5063323;28;20028;-76
2024/02/21 00:29:59;;;;;;;8.13;1.45;;;9.60;99.90;;;;;;5068484;28;20071;-76
2024/02/21 00:32:25;;;;;;;6.97;1.73;;;9.60;99.90;;;;;;5047562;28;20045;-77
2024/02/21 00:34:50;;;;;;;12.38;1.45;;;9.60;99.90;;;;;;5056361;28;20032;-77
2024/02/21 00:37:16;;;;;;;12.13;1.70;;;9.60;99.90;;;;;;5070449;28;20508;-75
2024/02/21 00:39:42;;;;;;;6.07;1.65;;;9.60;99.90;;;;;;5069368;28;20031;-75
2024/02/21 00:42:08;;;;;;;9.57;1.58;;;9.60;99.90;;;;;;5070517;28;20044;-76
2024/02/21 00:44:33;;;;;;;16.17;2.83;;;9.60;99.90;;;;;;5069655;28;20481;-75
2024/02/21 00:46:59;;;;;;;8.73;1.40;;;9.50;99.90;;;;;;5065953;28;20090;-78
2024/02/21 00:49:24;;;;;;;9.65;1.50;;;9.50;99.90;;;;;;5051380;28;20044;-76
2024/02/21 00:51:50;;;;;;;10.68;2.08;;;9.50;99.90;;;;;;5073509;28;20043;-76
2024/02/21 00:54:16;;;;;;;4.50;1.52;;;9.50;99.90;;;;;;5068725;28;20078;-79
2024/02/21 00:56:41;;;;;;;13.88;2.05;;;9.50;99.90;;;;;;5052226;28;20048;-75
2024/02/21 00:59:07;;;;;;;13.32;1.85;;;9.50;99.90;;;;;;5069972;28;20119;-76
2024/02/21 01:01:32;;;;;;;10.23;2.13;;;9.60;99.90;;;;;;5065771;28;20119;-76
2024/02/21 01:03:58;;;;;;;8.82;2.58;;;9.60;99.90;;;;;;5068836;28;20101;-75
2024/02/21 01:06:23;;;;;;;6.70;1.10;;;9.60;99.90;;;;;;5062246;28;20033;-75
2024/02/21 01:08:49;;;;;;;8.93;2.35;;;9.60;99.90;;;;;;5047301;28;20033;-75
2024/02/21 01:11:16;;;;;;;4.80;1.08;;;9.60;99.90;;;;;;5050719;28;20032;-75
2024/02/21 01:13:41;;;;;;;7.13;2.42;;;9.60;99.90;;;;;;5063333;28;20036;-75
2024/02/21 01:16:07;;;;;;;8.35;1.75;;;9.60;99.90;;;;;;5069360;28;20093;-75
2024/02/21 01:18:39;;;;;;;6.80;1.25;;;9.60;99.90;;;;;;5050175;28;20075;-76
2024/02/21 01:21:06;;;;;;;10.82;2.88;;;9.60;99.90;;;;;;5045604;28;20142;-76
2024/02/21 01:23:33;;;;;;;6.20;2.22;;;9.60;99.90;;;;;;5067600;28;20044;-75
2024/02/21 01:25:59;;;;;;;6.55;1.55;;;9.70;99.90;;;;;;5049180;28;20171;-76
2024/02/21 01:28:25;;;;;;;12.35;2.85;;;9.60;99.90;;;;;;5067520;28;20151;-76
2024/02/21 01:30:50;;;;;;;5.25;1.73;;;9.60;99.90;;;;;;5041235;28;20200;-76
2024/02/21 01:33:16;;;;;;;5.45;1.70;;;9.60;99.90;;;;;;5062899;28;20035;-76
2024/02/21 01:35:41;;;;;;;7.10;1.77;;;9.60;99.90;;;;;;5047970;28;20040;-75
2024/02/21 01:38:07;;;;;;;8.95;1.90;;;9.60;99.90;;;;;;5068132;28;20556;-74
2024/02/21 01:40:32;;;;;;;14.52;3.38;;;9.60;99.90;;;;;;5052726;28;20041;-78
2024/02/21 01:42:58;;;;;;;10.77;2.40;;;9.60;99.90;;;;;;5046184;28;20032;-75
2024/02/21 01:45:23;;;;;;;8.25;1.88;;;9.70;99.90;;;;;;5066868;28;20046;-75
2024/02/21 01:47:49;;;;;;;8.93;2.15;;;9.60;99.90;;;;;;5059315;28;20040;-76
2024/02/21 01:50:16;;;;;;;7.25;1.65;;;9.70;99.90;;;;;;5062491;28;20500;-75
2024/02/21 01:52:46;;;;;;;9.05;2.17;;;9.70;99.90;;;;;;5066221;28;20021;-76
2024/02/21 01:55:13;;;;;;;10.18;3.15;;;9.70;99.90;;;;;;5067945;28;20444;-75
2024/02/21 01:57:40;;;;;;;12.48;2.00;;;9.70;99.90;;;;;;5048469;28;20025;-75
2024/02/21 02:00:07;;;;;;;13.18;2.38;;;9.60;99.90;;;;;;5062585;28;20059;-74
2024/02/21 02:02:33;;;;;;;6.35;2.17;;;9.70;99.90;;;;;;5049301;28;20198;-75
2024/02/21 02:05:00;;;;;;;8.77;1.83;;;9.70;99.90;;;;;;5047366;28;20037;-75
2024/02/21 02:07:26;;;;;;;8.70;2.20;;;9.70;99.90;;;;;;5061479;28;20127;-76
2024/02/21 02:09:51;;;;;;;16.52;3.15;;;9.70;99.90;;;;;;5062028;28;20120;-76
2024/02/21 02:12:17;;;;;;;6.88;1.58;;;9.70;99.90;;;;;;5045513;28;20119;-75
2024/02/21 02:14:42;;;;;;;20.08;2.65;;;9.70;99.90;;;;;;5063811;28;20561;-75
2024/02/21 02:17:09;;;;;;;9.73;2.03;;;9.70;99.90;;;;;;5065446;28;20037;-77
2024/02/21 02:19:34;;;;;;;9.60;2.67;;;9.70;99.90;;;;;;5065067;28;20096;-75
2024/02/21 02:22:10;;;;;;;7.28;1.80;;;9.70;99.90;;;;;;5063737;28;20068;-76
2024/02/21 02:24:35;;;;;;;9.98;2.45;;;9.70;99.90;;;;;;5066545;28;20032;-75
2024/02/21 02:27:01;;;;;;;15.90;3.17;;;9.70;99.90;;;;;;5063979;28;20029;-79
2024/02/21 02:29:26;;;;;;;13.85;3.50;;;9.70;99.90;;;;;;5064327;28;20064;-75
2024/02/21 02:31:52;;;;;;;7.63;1.70;;;9.60;99.90;;;;;;5038688;28;20033;-75
2024/02/21 02:34:17;;;;;;;6.10;2.17;;;9.60;99.90;;;;;;5067328;28;20043;-76
2024/02/21 02:36:43;;;;;;;5.72;2.65;;;9.70;99.90;;;;;;5043744;28;20054;-75
2024/02/21 02:39:08;;;;;;;9.98;2.70;;;9.70;99.90;;;;;;5065446;28;20035;-74
2024/02/21 02:41:37;;;;;;;5.47;2.03;;;9.70;99.90;;;;;;5047423;28;20044;-74
2024/02/21 02:44:02;;;;;;;4.15;1.67;;;9.70;99.90;;;;;;5063235;28;20433;-75
2024/02/21 02:46:28;;;;;;;10.65;2.83;;;9.70;99.90;;;;;;5047385;28;20582;-75
2024/02/21 02:48:54;;;;;;;8.00;1.65;;;9.60;99.90;;;;;;5042930;28;20497;-78
2024/02/21 02:51:19;;;;;;;10.73;2.35;;;9.60;99.90;;;;;;5059771;28;20512;-79
2024/02/21 02:53:45;;;;;;;7.93;2.28;;;9.70;99.90;;;;;;5044859;28;20421;-75
2024/02/21 02:56:16;;;;;;;10.57;2.75;;;9.70;99.90;;;;;;5053693;28;20033;-75
2024/02/21 02:58:43;;;;;;;14.80;2.40;;;9.60;99.90;;;;;;5061913;28;20059;-77
2024/02/21 03:01:09;;;;;;;12.50;2.17;;;9.60;99.90;;;;;;5059089;28;20560;-75
2024/02/21 03:03:34;;;;;;;6.35;2.00;;;9.60;99.90;;;;;;5061619;28;20040;-76
2024/02/21 03:06:00;;;;;;;10.95;2.58;;;9.70;99.90;;;;;;5062442;28;20054;-75
2024/02/21 03:08:26;;;;;;;5.03;1.67;;;9.60;99.90;;;;;;5060405;28;20062;-75
2024/02/21 03:10:51;;;;;;;16.42;2.97;;;9.60;99.90;;;;;;5048500;28;20032;-78
2024/02/21 03:13:17;;;;;;;7.38;1.98;;;9.60;99.90;;;;;;5069052;28;20032;-77
2024/02/21 03:15:42;;;;;;;6.97;1.90;;;9.60;99.90;;;;;;5062378;28;20436;-78
2024/02/21 03:18:08;;;;;;;13.57;2.70;;;9.70;99.90;;;;;;5060742;28;20028;-75
2024/02/21 03:20:33;;;;;;;13.85;2.50;;;9.60;99.90;;;;;;5041941;28;20032;-76
2024/02/21 03:22:59;;;;;;;11.07;2.78;;;9.60;99.90;;;;;;5067127;28;20029;-74
2024/02/21 03:25:24;;;;;;;7.05;2.55;;;9.60;99.90;;;;;;5060489;28;20033;-77
2024/02/21 03:27:51;;;;;;;10.45;2.40;;;9.60;99.90;;;;;;5040419;28;20032;-76
2024/02/21 03:30:17;;;;;;;6.60;1.70;;;9.60;99.90;;;;;;5040651;28;20045;-76
2024/02/21 03:32:42;;;;;;;6.47;1.95;;;9.60;99.90;;;;;;5054686;28;20452;-76
2024/02/21 03:35:08;;;;;;;3.78;1.80;;;9.60;99.90;;;;;;5058000;28;20044;-76
2024/02/21 03:37:33;;;;;;;8.80;2.45;;;9.60;99.90;;;;;;5063147;28;20024;-75
2024/02/21 03:39:59;;;;;;;9.65;2.10;;;9.60;99.90;;;;;;5063689;28;20489;-75
2024/02/21 03:42:25;;;;;;;10.77;2.70;;;9.60;99.90;;;;;;5066488;28;20806;-76
2024/02/21 03:44:50;;;;;;;10.02;2.65;;;9.60;99.90;;;;;;5041734;28;20040;-77
2024/02/21 03:47:16;;;;;;;9.60;3.20;;;9.60;99.90;;;;;;5045658;28;20396;-75
2024/02/21 03:49:42;;;;;;;8.57;2.80;;;9.60;99.90;;;;;;5044247;28;20037;-74
2024/02/21 03:52:08;;;;;;;6.60;1.80;;;9.60;99.90;;;;;;5061909;28;20040;-75
2024/02/21 03:54:33;;;;;;;9.07;2.30;;;9.60;99.90;;;;;;5070369;28;20397;-76
2024/02/21 03:56:59;;;;;;;5.03;2.13;;;9.60;99.90;;;;;;5067161;28;20034;-77
2024/02/21 03:59:24;;;;;;;13.85;2.63;;;9.60;99.90;;;;;;5059280;28;20489;-75
2024/02/21 04:01:53;;;;;;;16.52;3.00;;;9.60;99.90;;;;;;5052898;28;20561;-75
2024/02/21 04:04:19;;;;;;;5.97;2.15;;;9.60;99.90;;;;;;5050955;28;20058;-75
2024/02/21 04:06:49;;;;;;;14.27;2.35;;;9.60;99.90;;;;;;5053094;28;20037;-75
2024/02/21 04:09:14;;;;;;;9.93;1.75;;;9.60;99.90;;;;;;5065619;28;20032;-76
2024/02/21 04:11:40;;;;;;;10.15;2.28;;;9.50;99.90;;;;;;5040151;28;20039;-76
2024/02/21 04:14:05;;;;;;;6.75;1.90;;;9.50;99.90;;;;;;5064419;28;20142;-77
2024/02/21 04:16:31;;;;;;;3.67;1.65;;;9.50;99.90;;;;;;5046474;28;20440;-76
2024/02/21 04:18:57;;;;;;;7.90;2.80;;;9.50;99.90;;;;;;5066459;28;20613;-75
2024/02/21 04:21:22;;;;;;;5.00;1.70;;;9.50;99.90;;;;;;5065750;28;20041;-76
2024/02/21 04:23:48;;;;;;;16.15;2.22;;;9.50;99.90;;;;;;5070673;28;20067;-76
2024/02/21 04:26:13;;;;;;;6.60;2.08;;;9.60;99.90;;;;;;5072204;28;20481;-73
2024/02/21 04:28:39;;;;;;;9.93;2.35;;;9.50;99.90;;;;;;5081525;28;20501;-78
2024/02/21 04:31:05;;;;;;;6.15;2.05;;;9.50;99.90;;;;;;5081759;28;20511;-77
2024/02/21 04:33:30;;;;;;;4.00;1.95;;;9.50;99.90;;;;;;5067913;28;20027;-74
2024/02/21 04:35:56;;;;;;;2.88;1.50;;;9.50;99.90;;;;;;5069346;28;20033;-77
2024/02/21 04:38:21;;;;;;;5.82;2.00;;;9.50;99.90;;;;;;5051052;28;20037;-75
2024/02/21 04:40:47;;;;;;;5.00;1.92;;;9.50;99.90;;;;;;5066802;28;20059;-78
2024/02/21 04:43:12;;;;;;;10.40;2.63;;;9.50;99.90;;;;;;5054576;28;20059;-77
2024/02/21 04:45:38;;;;;;;9.65;2.80;;;9.40;99.90;;;;;;5060488;28;20561;-78
2024/02/21 04:48:04;;;;;;;10.48;2.22;;;9.50;99.90;;;;;;5069086;28;20032;-77
2024/02/21 04:50:29;;;;;;;6.10;2.58;;;9.50;99.90;;;;;;5050247;28;20095;-76
2024/02/21 04:52:55;;;;;;;5.55;2.60;;;9.50;99.90;;;;;;5044062;28;20032;-76
2024/02/21 04:55:20;;;;;;;9.13;3.17;;;9.50;99.90;;;;;;5062033;28;20075;-76
2024/02/21 04:57:46;;;;;;;8.82;2.63;;;9.50;99.90;;;;;;5068273;28;20028;-78
2024/02/21 05:00:12;;;;;;;6.93;3.00;;;9.50;99.90;;;;;;5065669;28;20070;-74
2024/02/21 05:02:37;;;;;;;7.65;2.30;;;9.50;99.90;;;;;;5049822;28;20036;-75
2024/02/21 05:05:03;;;;;;;5.40;2.60;;;9.50;99.90;;;;;;5050496;28;20044;-75
2024/02/21 05:07:28;;;;;;;5.10;2.53;;;9.50;99.90;;;;;;5045840;28;20032;-75
2024/02/21 05:09:54;;;;;;;9.40;2.47;;;9.50;99.90;;;;;;5065007;28;20024;-77
2024/02/21 05:12:20;;;;;;;7.88;2.78;;;9.40;99.90;;;;;;5060098;28;20040;-76
2024/02/21 05:14:45;;;;;;;5.97;2.67;;;9.50;99.90;;;;;;5046221;28;20033;-75
2024/02/21 05:17:11;;;;;;;10.05;3.03;;;9.50;99.90;;;;;;5063883;28;20045;-75
2024/02/21 05:19:36;;;;;;;6.82;3.25;;;9.40;99.90;;;;;;5047661;28;20044;-74
2024/02/21 05:22:02;;;;;;;7.82;3.00;;;9.40;99.90;;;;;;5067425;28;20044;-75
2024/02/21 05:24:27;;;;;;;6.45;3.22;;;9.50;99.90;;;;;;5065563;28;20052;-75
2024/02/21 05:26:54;;;;;;;6.93;3.03;;;9.40;99.90;;;;;;5049215;28;20136;-79
2024/02/21 05:29:19;;;;;;;12.45;3.03;;;9.40;99.90;;;;;;5069882;28;20036;-76
2024/02/21 05:31:51;;;;;;;13.70;3.60;;;9.40;99.90;;;;;;5079788;28;20058;-76
2024/02/21 05:34:17;;;;;;;7.20;3.30;;;9.40;99.90;;;;;;5048243;28;20036;-76
2024/02/21 05:36:42;;;;;;;8.40;2.67;;;9.40;99.90;;;;;;5046699;28;20040;-76
2024/02/21 05:39:08;;;;;;;13.50;3.05;;;9.50;99.90;;;;;;5060902;28;20037;-74
2024/02/21 05:41:33;;;;;;;8.05;2.78;;;9.50;99.90;;;;;;5066319;28;20040;-75
2024/02/21 05:43:59;;;;;;;10.20;3.03;;;9.50;99.90;;;;;;5047963;28;20047;-77
2024/02/21 05:46:24;;;;;;;12.80;3.60;;;9.50;99.90;;;;;;5042283;28;20137;-77
2024/02/21 05:48:50;;;;;;;5.38;2.83;;;9.40;99.90;;;;;;5050257;28;20115;-75
2024/02/21 05:51:15;;;;;;;10.65;3.40;;;9.40;99.90;;;;;;5066637;28;20119;-75
2024/02/21 05:53:41;;;;;;;5.53;2.40;;;9.40;99.90;;;;;;5058482;28;20090;-76
2024/02/21 05:56:13;;;;;;;7.95;2.78;;;9.40;99.90;;;;;;5049427;28;20065;-76
2024/02/21 05:58:39;;;;;;;6.78;3.05;;;9.50;99.90;;;;;;5058294;28;20040;-78
2024/02/21 06:01:06;;;;;;;10.40;3.35;;;9.40;99.90;;;;;;5065888;28;20575;-78
2024/02/21 06:03:32;;;;;;;7.32;3.08;;;9.50;99.90;;;;;;5064694;28;20704;-75
2024/02/21 06:05:59;;;;;;;7.47;3.00;;;9.40;99.90;;;;;;5043691;28;20816;-76
2024/02/21 06:08:24;;;;;;;9.80;3.15;;;9.50;99.90;;;;;;5061460;28;20036;-76
2024/02/21 06:10:54;;;;;;;11.43;3.10;;;9.50;99.90;;;;;;5042840;28;20040;-73
2024/02/21 06:13:23;;;;;;;7.65;3.60;;;9.50;99.90;;;;;;5060876;28;20675;-77
2024/02/21 06:15:50;;;;;;;10.25;4.00;;;9.50;99.90;;;;;;5065291;28;20041;-76
2024/02/21 06:18:17;;;;;;;9.18;3.08;;;9.50;99.90;;;;;;5067607;28;20051;-76
2024/02/21 06:20:43;;;;;;;8.23;3.13;;;9.50;99.90;;;;;;5050648;28;20053;-76
2024/02/21 06:23:08;;;;;;;8.25;3.83;;;9.40;99.90;;;;;;5047102;28;20585;-77
2024/02/21 06:25:34;;;;;;;11.88;3.35;;;9.40;99.90;;;;;;5063182;28;20048;-78
2024/02/21 06:27:59;;;;;;;13.73;3.33;;;9.40;99.90;;;;;;5044541;28;20028;-76
2024/02/21 06:30:25;;;;;;;10.40;3.20;;;9.40;99.90;;;;;;5052245;28;20040;-76
2024/02/21 06:32:51;;;;;;;11.02;3.45;;;9.40;99.90;;;;;;5043085;28;20087;-76
2024/02/21 06:35:16;;;;;;;14.10;3.85;;;9.40;99.90;;;;;;5046476;28;20068;-75
2024/02/21 06:37:42;;;;;;;13.27;4.60;;;9.40;99.90;;;;;;5062410;28;20370;-76
2024/02/21 06:40:08;;;;;;;11.55;4.57;;;9.40;99.90;;;;;;5049685;28;20035;-74
2024/02/21 06:42:33;;;;;;;11.80;3.85;;;9.40;99.90;;;;;;5049464;28;20989;-76
2024/02/21 06:44:59;;;;;;;21.33;5.13;;;9.30;99.90;;;;;;5044775;28;20513;-77
2024/02/21 06:47:25;;;;;;;8.25;3.53;;;9.30;99.90;;;;;;5072932;28;20075;-75
2024/02/21 06:49:51;;;;;;;8.93;3.58;;;9.40;99.90;;;;;;5046325;28;20036;-73
2024/02/21 06:52:23;;;;;;;12.75;3.20;;;9.30;99.90;;;;;;5039984;28;20029;-79
2024/02/21 06:54:49;;;;;;;12.57;3.05;;;9.40;99.90;;;;;;5064596;28;20143;-74
2024/02/21 06:57:15;;;;;;;10.38;2.90;;;9.40;99.90;;;;;;5046841;28;20116;-76
2024/02/21 06:59:41;;;;;;;12.95;3.90;;;9.40;99.90;;;;;;5048556;28;20111;-75
2024/02/21 07:02:07;;;;;;;12.48;3.67;;;9.40;99.90;;;;;;5053815;28;20042;-77
2024/02/21 07:04:33;;;;;;;10.48;3.58;;;9.40;99.90;;;;;;5058063;28;20090;-76
2024/02/21 07:06:59;;;;;;;14.23;4.68;;;9.40;99.90;;;;;;5067476;28;20175;-76
2024/02/21 07:09:24;;;;;;;11.65;3.60;;;9.40;99.90;;;;;;5059974;28;20050;-75
2024/02/21 07:11:50;;;;;;;15.57;3.75;;;9.40;99.90;;;;;;5065132;28;20071;-76
2024/02/21 07:14:15;;;;;;;11.82;3.70;;;9.40;99.90;;;;;;5059895;28;20035;-75
2024/02/21 07:16:41;;;;;;;9.40;3.97;;;9.40;99.90;;;;;;5043406;28;20074;-76
2024/02/21 07:19:07;;;;;;;14.15;4.57;;;9.30;99.90;;;;;;5067656;28;20041;-74
2024/02/21 07:21:32;;;;;;;10.90;3.88;;;9.30;99.90;;;;;;5070694;28;20818;-75
2024/02/21 07:23:58;;;;;;;13.00;3.72;;;9.40;99.90;;;;;;5050937;28;20036;-75
2024/02/21 07:26:23;;;;;;;15.55;4.63;;;9.30;99.90;;;;;;5059546;28;20029;-76
2024/02/21 07:28:49;;;;;;;16.20;5.60;;;9.30;99.90;;;;;;5066104;28;20414;-76
2024/02/21 07:31:15;;;;;;;9.60;3.95;;;9.30;99.90;;;;;;5065348;28;20036;-75
2024/02/21 07:33:40;;;;;;;10.98;4.47;;;9.30;99.90;;;;;;5051353;28;21017;-74
2024/02/21 07:36:08;;;;;;;15.23;4.43;;;9.40;99.90;;;;;;5064862;28;20497;-75
2024/02/21 07:38:34;;;;;;;12.90;4.88;;;9.40;99.90;;;;;;5071507;28;21252;-76
2024/02/21 07:40:59;;;;;;;14.27;3.70;;;9.30;99.90;;;;;;5061603;28;20039;-77
2024/02/21 07:43:26;;;;;;;12.90;5.43;;;9.30;99.90;;;;;;5056629;28;20037;-75
2024/02/21 07:45:53;;;;;;;14.20;4.20;;;9.30;99.90;;;;;;5072387;28;20036;-78
2024/02/21 07:48:18;;;;;;;14.32;4.55;;;9.30;99.90;;;;;;5075664;28;20051;-78
2024/02/21 07:50:44;;;;;;;16.52;4.75;;;9.30;99.90;;;;;;5056515;28;20128;-74
2024/02/21 07:53:10;;;;;;;15.90;4.35;;;9.40;99.90;;;;;;5067877;28;20512;-74
2024/02/21 07:55:35;;;;;;;16.10;4.35;;;9.30;99.90;;;;;;5041074;28;20486;-76
2024/02/21 07:58:01;;;;;;;11.25;4.90;;;9.30;99.90;;;;;;5044412;28;20556;-77
2024/02/21 08:00:27;;;;;;;18.63;4.60;;;9.40;99.90;;;;;;5070727;28;20494;-76
2024/02/21 08:02:52;;;;;;;14.00;4.70;;;9.40;99.90;;;;;;5068164;28;20025;-76
2024/02/21 08:05:18;;;;;;;12.20;5.05;;;9.40;99.90;;;;;;5071174;28;20041;-77
2024/02/21 08:07:43;;;;;;;10.23;4.10;;;9.50;99.90;;;;;;5062587;28;20037;-76
2024/02/21 08:10:09;;;;;;;11.40;4.32;;;9.50;99.90;;;;;;5041716;28;20525;-76
2024/02/21 08:12:34;;;;;;;15.18;4.63;;;9.50;99.90;;;;;;5057971;28;20509;-75
2024/02/21 08:15:00;;;;;;;9.13;3.63;;;9.60;99.90;;;;;;5040536;28;20524;-76
2024/02/21 08:17:26;;;;;;;9.35;4.55;;;9.60;99.90;;;;;;5060584;28;20388;-77
2024/02/21 08:19:51;;;;;;;16.55;3.97;;;9.60;99.90;;;;;;5061125;28;20459;-80
2024/02/21 08:22:17;;;;;;;11.80;4.95;;;9.70;99.90;;;;;;5046189;28;20469;-75
2024/02/21 08:24:42;;;;;;;19.38;5.40;;;9.60;99.90;;;;;;5047465;28;20561;-77
2024/02/21 08:27:08;;;;;;;15.10;5.32;;;9.60;99.90;;;;;;5051582;28;20032;-73
2024/02/21 08:29:34;;;;;;;14.80;4.00;;;9.60;99.90;;;;;;5064648;28;20040;-77
2024/02/21 08:31:59;;;;;;;13.43;4.13;;;9.60;99.90;;;;;;5067033;28;20119;-78
2024/02/21 08:34:25;;;;;;;8.77;4.30;;;9.60;99.90;;;;;;5077425;28;20047;-82
2024/02/21 08:36:51;;;;;;;12.90;5.43;;;9.60;99.90;;;;;;5072146;28;20802;-76
2024/02/21 08:39:16;;;;;;;11.52;5.68;;;9.60;99.90;;;;;;5065382;28;20052;-77
2024/02/21 08:41:42;;;;;;;21.95;5.22;;;9.70;99.90;;;;;;5051196;28;20356;-75
2024/02/21 08:44:08;;;;;;;15.48;4.72;;;9.70;99.90;;;;;;5064185;28;20068;-75
2024/02/21 08:46:33;;;;;;;16.73;4.93;;;9.70;99.90;;;;;;5050952;28;20032;-75
2024/02/21 08:48:59;;;;;;;17.85;6.20;;;9.70;99.90;;;;;;5051950;28;20597;-77
2024/02/21 08:51:25;;;;;;;11.70;4.80;;;9.80;99.90;;;;;;5043818;28;20059;-75
2024/02/21 08:53:51;;;;;;;10.90;5.03;;;9.80;99.90;;;;;;5067619;28;20496;-77
2024/02/21 08:56:17;;;;;;;14.18;5.05;;;9.80;99.90;;;;;;5043108;28;20394;-76
2024/02/21 08:58:43;;;;;;;10.48;4.35;;;9.80;99.90;;;;;;5046250;28;20034;-76
2024/02/21 09:01:10;;;;;;;10.60;5.15;;;9.80;99.90;;;;;;5070062;28;20028;-77
2024/02/21 09:03:39;;;;;;;15.25;4.80;;;9.90;99.90;;;;;;5042935;28;20068;-77
2024/02/21 09:06:07;;;;;;;12.18;4.28;;;9.90;99.90;;;;;;5044652;28;20040;-76
2024/02/21 09:08:33;;;;;;;14.07;5.07;;;9.90;99.90;;;;;;5049574;28;20089;-78
2024/02/21 09:11:00;;;;;;;15.05;4.82;;;10.00;99.90;;;;;;5066243;28;20036;-75
2024/02/21 09:13:26;;;;;;;15.10;5.53;;;9.90;99.90;;;;;;5072630;28;20615;-76
2024/02/21 09:15:52;;;;;;;14.82;6.00;;;9.90;99.90;;;;;;5067553;28;20070;-76
2024/02/21 09:18:18;;;;;;;12.50;4.55;;;10.00;99.90;;;;;;5048044;28;20437;-76
2024/02/21 09:20:43;;;;;;;17.42;4.88;;;9.90;99.90;;;;;;5081917;28;20031;-79
2024/02/21 09:23:09;;;;;;;10.55;3.90;;;9.90;99.90;;;;;;5066317;28;20035;-77
2024/02/21 09:25:35;;;;;;;13.90;5.03;;;9.90;99.90;;;;;;5049050;28;20922;-76
2024/02/21 09:28:02;;;;;;;12.10;4.22;;;9.90;99.90;;;;;;5065395;28;20029;-76
2024/02/21 09:30:28;;;;;;;10.70;3.75;;;9.90;99.90;;;;;;5071093;28;20044;-76
2024/02/21 09:32:54;;;;;;;14.27;3.60;;;10.00;99.90;;;;;;5045509;28;20024;-76
2024/02/21 09:35:22;;;;;;;11.43;4.00;;;9.90;99.90;;;;;;5053644;28;20671;-76
2024/02/21 09:37:47;;;;;;;9.77;3.88;;;10.00;99.90;;;;;;5070359;28;20060;-74
2024/02/21 09:40:18;;;;;;;11.57;4.28;;;10.00;99.90;;;;;;5065458;28;20051;-75
2024/02/21 09:42:43;;;;;;;;;;;10.10;99.90;;;;;;5049596;28;20059;-76
2024/02/21 09:45:22;;;;;;;12.63;2.95;;;10.10;99.90;;;;;;5061388;28;20355;-75
2024/02/21 09:48:10;;;;;;;7.50;2.92;;;10.20;99.90;;;;;;5048496;28;20404;-75
2024/02/21 09:50:40;;;;;;;10.02;3.03;;;10.20;99.90;;;;;;5063307;28;20040;-78
2024/02/21 09:53:07;;;;;;;11.40;3.42;;;10.20;99.90;;;;;;5045358;28;20029;-76
2024/02/21 09:55:34;;;;;;;9.70;3.58;;;10.20;99.90;;;;;;5068573;28;20032;-74
2024/02/21 09:58:01;;;;;;;11.13;3.03;;;10.20;99.90;;;;;;5052862;28;20040;-75
2024/02/21 10:00:27;;;;;;;7.75;4.03;;;10.30;99.90;;;;;;5045670;28;20036;-78
2024/02/21 10:02:53;;;;;;;12.48;3.72;;;10.20;99.90;;;;;;5044698;28;20755;-76
2024/02/21 10:05:19;;;;;;;7.95;3.00;;;10.20;99.90;;;;;;5068110;28;20068;-76
2024/02/21 10:07:45;;;;;;;9.65;2.80;;;10.30;99.90;;;;;;5078771;28;20491;-77
2024/02/21 10:10:11;;;;;;;8.55;2.80;;;10.30;99.90;;;;;;5074405;28;20040;-75
2024/02/21 10:12:36;;;;;;;7.05;2.60;;;10.40;99.90;;;;;;5050096;28;20047;-74
2024/02/21 10:15:03;;;;;;;5.82;2.72;;;10.40;99.90;;;;;;5062146;28;20036;-77
2024/02/21 10:17:29;;;;;;;11.40;3.70;;;10.50;99.90;;;;;;5056128;28;20040;-76
2024/02/21 10:19:55;;;;;;;8.23;3.25;;;10.50;99.90;;;;;;5045542;28;20043;-76
2024/02/21 10:22:20;;;;;;;7.32;2.58;;;10.60;99.90;;;;;;5050710;28;20024;-76
2024/02/21 10:24:46;;;;;;;5.53;2.67;;;10.60;99.90;;;;;;5049030;28;20047;-77
2024/02/21 10:27:12;;;;;;;6.05;2.83;;;10.70;99.90;;;;;;5069496;28;20513;-76
2024/02/21 10:29:39;;;;;;;10.60;2.78;;;10.70;99.90;;;;;;5049609;28;20046;-74
2024/02/21 10:32:08;;;;;;;7.10;2.58;;;10.70;99.90;;;;;;5045820;28;20055;-77
2024/02/21 10:34:34;;;;;;;5.40;2.63;;;10.80;99.90;;;;;;5043003;28;20493;-78
2024/02/21 10:37:03;;;;;;;7.20;2.33;;;10.80;99.90;;;;;;5050965;28;20119;-75
2024/02/21 10:39:34;;;;;;;5.97;2.05;;;10.90;99.90;;;;;;5063271;28;20512;-74
2024/02/21 10:42:06;;;;;;;;;;;11.00;99.90;;;;;;5063926;28;20028;-77
2024/02/21 10:44:35;;;;;;;4.68;1.83;;;11.00;99.90;;;;;;5059534;28;19927;-77
2024/02/21 10:47:10;;;;;;;7.28;2.53;;;11.00;99.90;;;;;;5067482;28;20036;-75
2024/02/21 10:49:40;;;;;;;4.40;2.03;;;11.00;99.90;;;;;;5043883;28;20098;-76
2024/02/21 10:52:22;;;;;;;7.15;2.35;;;11.00;99.90;;;;;;5054086;28;20086;-77
2024/02/21 10:55:10;;;;;;;8.88;2.60;;;11.00;99.90;;;;;;5068775;28;20041;-75
2024/02/21 10:57:38;;;;;;;3.20;1.70;;;11.00;99.90;;;;;;5062405;28;20032;-77
2024/02/21 11:00:07;;;;;;;4.18;1.83;;;10.90;99.90;;;;;;5064239;28;20029;-78
2024/02/21 11:02:34;;;;;;;4.75;2.03;;;11.00;99.90;;;;;;5043461;28;20476;-76
2024/02/21 11:05:03;;;;;;;4.95;2.33;;;11.00;99.90;;;;;;5059933;28;20040;-78
2024/02/21 11:07:29;;;;;;;3.80;1.85;;;10.90;99.90;;;;;;5041217;28;20040;-76
2024/02/21 11:09:55;;;;;;;5.88;2.03;;;10.90;99.90;;;;;;5037962;28;20035;-76
2024/02/21 11:12:21;;;;;;;4.35;1.70;;;10.90;99.90;;;;;;5063133;28;20040;-77
2024/02/21 11:14:47;;;;;;;4.80;2.20;;;10.80;99.90;;;;;;5044292;28;20119;-75
2024/02/21 11:17:21;;;;;;;5.32;2.67;;;10.70;99.90;;;;;;5045009;28;20567;-77
2024/02/21 11:19:47;;;;;;;7.68;3.05;;;10.70;99.90;;;;;;5062335;28;20075;-76
2024/02/21 11:22:17;;;;;;;6.80;2.50;;;10.70;99.90;;;;;;5048126;28;20505;-78
2024/02/21 11:24:43;;;;;;;7.15;2.90;;;10.70;99.90;;;;;;5038546;28;20123;-75
2024/02/21 11:27:15;;;;;;;3.92;2.10;;;10.60;99.90;;;;;;5046972;28;20107;-77
2024/02/21 11:29:44;;;;;;;6.68;2.80;;;10.60;99.90;;;;;;5024060;28;20462;-75
2024/02/21 11:32:11;;;;;;;5.90;2.40;;;10.70;99.90;;;;;;5027182;28;20025;-75
2024/02/21 11:34:39;;;;;;;5.95;2.55;;;10.60;99.90;;;;;;5023623;28;20170;-75
2024/02/21 11:37:16;;;;;;;8.18;2.47;;;10.70;99.90;;;;;;5038045;28;20028;-75
2024/02/21 11:39:41;;;;;;;3.70;2.05;;;10.70;99.90;;;;;;5047768;28;20040;-75
2024/02/21 11:42:08;;;;;;;8.38;3.25;;;10.70;99.90;;;;;;5067247;28;20037;-75
2024/02/21 11:44:42;;;;;;;6.43;2.53;;;10.80;99.90;;;;;;5078284;28;20127;-76
2024/02/21 11:47:08;;;;;;;7.32;2.55;;;10.90;99.90;;;;;;5075264;28;20594;-75
2024/02/21 11:49:39;;;;;;;5.85;2.75;;;11.00;99.90;;;;;;5048407;28;20029;-75
2024/02/21 11:52:05;;;;;;;5.43;2.15;;;11.10;99.90;;;;;;5061208;28;20051;-76
2024/02/21 11:54:31;;;;;;;8.57;2.83;;;11.10;99.90;;;;;;5038352;28;20029;-75
2024/02/21 11:56:57;;;;;;;4.60;2.25;;;11.10;99.90;;;;;;5043862;28;20669;-76
2024/02/21 11:59:22;;;;;;;7.88;2.80;;;11.20;99.90;;;;;;5065197;28;20067;-78
2024/02/21 12:01:52;;;;;;;6.90;2.80;;;11.20;99.90;;;;;;5060007;28;20032;-76
2024/02/21 12:04:19;;;;;;;7.57;2.33;;;11.30;99.90;;;;;;5062421;28;20098;-76
2024/02/21 12:06:45;;;;;;;4.85;2.42;;;11.30;99.90;;;;;;5043158;28;20028;-75
2024/02/21 12:09:16;;;;;;;11.73;3.00;;;11.30;99.90;;;;;;5061892;28;20043;-75
2024/02/21 12:11:41;;;;;;;8.63;2.78;;;11.30;99.90;;;;;;5038033;28;20506;-78
2024/02/21 12:14:09;;;;;;;3.88;2.40;;;11.30;99.90;;;;;;5038598;28;20047;-77
2024/02/21 12:16:36;;;;;;;6.72;2.60;;;11.30;99.90;;;;;;5033318;28;20041;-73
2024/02/21 12:19:03;;;;;;;7.15;2.35;;;11.30;99.90;;;;;;5036196;28;20620;-75
2024/02/21 12:21:36;;;;;;;5.85;2.10;;;11.30;99.90;;;;;;5037308;28;20028;-75
2024/02/21 12:24:15;;;;;;;4.82;2.28;;;11.40;99.90;;;;;;5033336;28;20064;-76
2024/02/21 12:26:41;;;;;;;6.75;2.33;;;11.30;99.90;;;;;;5038988;28;20575;-75
2024/02/21 12:29:10;;;;;;;5.65;2.30;;;11.30;99.90;;;;;;5038758;28;20046;-75
2024/02/21 12:31:39;;;;;;;5.45;2.53;;;11.30;99.90;;;;;;5043701;28;20095;-77
2024/02/21 12:34:05;;;;;;;3.33;2.22;;;11.50;99.90;;;;;;5049978;28;20044;-76
2024/02/21 12:36:32;;;;;;;3.38;1.70;;;11.50;99.90;;;;;;5042179;28;20144;-75
2024/02/21 12:38:59;;;;;;;3.90;1.98;;;11.60;99.90;;;;;;5034174;28;20045;-77
2024/02/21 12:41:26;;;;;;;6.68;2.22;;;11.60;99.90;;;;;;5034644;28;20042;-76
2024/02/21 12:43:52;;;;;;;5.43;1.92;;;11.70;99.90;;;;;;5038168;28;20048;-76
2024/02/21 12:46:18;;;;;;;5.13;1.92;;;11.70;99.90;;;;;;5033794;28;20403;-75